PAEI METAR and TAF weather

Enter ICAO airport designator
Station Type Date Time Source
PAEI METAR 2021/04/18 01:56 UTC NOAA

PAEI 180156Z AUTO 06005KT 10SM CLR 13/M05 A3043 RMK AO2 SLP313 T01331053 $


Station Type Date Time Source
PAEI Decoded METAR 2021/04/18 01:56 UTC NOAA

Fairbanks, Eielson Air Force Base, AK, United States (PAEI) 64-39N 147-06W 167M
Apr 17, 2021 - 09:56 PM EDT / 2021.04.18 0156 UTC
Wind: from the ENE (060 degrees) at 6 MPH (5 KT):0
Visibility: 10 mile(s):0
Sky conditions: clear
Temperature: 55.9 F (13.3 C)
Dew Point: 22.5 F (-5.3 C)
Relative Humidity: 26%
Pressure (altimeter): 30.43 in. Hg (1030 hPa)
ob: PAEI 180156Z AUTO 06005KT 10SM CLR 13/M05 A3043 RMK AO2 SLP313 T01331053
cycle: 2

Station Type Date Time Source
PAEI TAF 2021/04/17 22:59 UTC NOAA

TAF PAEI 172200Z 1722/1904 06009KT 9999 SKC QNH3043INS
BECMG 1805/1806 07006KT 9999 SKC WS009/12025KT 520094 QNH3035INS TX14/1800Z TNM06/1814Z

Example: see airport list